Time;durP1;ratioP1;P1;durP2;ratioP2;P2;SDS_P1;SDS_P2;PMS_P1;PMS_P2;Temp;Humidity;BMP_temperature;BMP_pressure;BME280_temperature;BME280_humidity;BME280_pressure;Samples;Min_cycle;Max_cycle;Signal;HPM_P1;HPM_P2
2022/09/22 00:01:12;;;;;;;4.37;2.40;;;;;;;;;;5050049;28;20266;-44
2022/09/22 00:03:39;;;;;;;3.10;2.20;;;;;;;;;;5051813;28;20204;-44
2022/09/22 00:06:08;;;;;;;3.27;2.10;;;;;;;;;;5052022;28;20192;-44
2022/09/22 00:08:35;;;;;;;3.47;2.37;;;;;;;;;;5047932;28;20637;-45
2022/09/22 00:11:03;;;;;;;2.77;2.17;;;;;;;;;;5050588;28;20220;-44
2022/09/22 00:13:29;;;;;;;2.70;2.20;;;;;;;;;;5052182;28;20286;-44
2022/09/22 00:15:55;;;;;;;4.47;2.30;;;;;;;;;;5052068;28;20232;-45
2022/09/22 00:18:21;;;;;;;2.27;2.07;;;;;;;;;;5050221;28;20959;-45
2022/09/22 00:20:47;;;;;;;3.00;2.27;;;;;;;;;;5052118;28;20200;-45
2022/09/22 00:23:14;;;;;;;3.90;2.50;;;;;;;;;;5051270;28;20215;-45
2022/09/22 00:25:40;;;;;;;2.43;2.10;;;;;;;;;;5052111;28;20200;-45
2022/09/22 00:28:06;;;;;;;3.03;2.27;;;;;;;;;;5049568;28;20208;-45
2022/09/22 00:30:32;;;;;;;2.83;2.43;;;;;;;;;;5051716;28;20240;-45
2022/09/22 00:32:58;;;;;;;2.97;2.10;;;;;;;;;;5051517;28;20200;-45
2022/09/22 00:35:25;;;;;;;3.83;2.20;;;;;;;;;;5049639;28;20228;-45
2022/09/22 00:37:51;;;;;;;3.60;2.50;;;;;;;;;;5051748;28;20258;-45
2022/09/22 00:40:18;;;;;;;3.83;2.17;;;;;;;;;;5051655;28;20291;-45
2022/09/22 00:42:44;;;;;;;2.80;1.93;;;;;;;;;;5051125;28;20656;-44
2022/09/22 00:45:11;;;;;;;3.00;2.10;;;;;;;;;;5049026;28;20200;-44
2022/09/22 00:47:49;;;;;;;2.77;2.10;;;;;;;;;;5051947;28;20203;-45
2022/09/22 00:50:17;;;;;;;4.77;3.40;;;;;;;;;;5049692;28;20670;-44
2022/09/22 00:52:45;;;;;;;3.73;3.40;;;;;;;;;;5050014;28;20243;-44
2022/09/22 00:55:13;;;;;;;2.90;2.63;;;;;;;;;;5051642;28;20234;-44
2022/09/22 00:57:40;;;;;;;2.53;2.30;;;;;;;;;;5049184;28;20235;-44
2022/09/22 01:00:08;;;;;;;5.27;2.60;;;;;;;;;;5051541;28;20964;-44
2022/09/22 01:02:34;;;;;;;3.87;2.13;;;;;;;;;;5049576;28;20812;-44
2022/09/22 01:05:00;;;;;;;2.97;2.20;;;;;;;;;;5051557;28;20739;-44
2022/09/22 01:07:28;;;;;;;6.83;2.47;;;;;;;;;;5049131;28;20274;-44
2022/09/22 01:09:54;;;;;;;3.00;2.37;;;;;;;;;;5049953;28;20180;-44
2022/09/22 01:12:21;;;;;;;3.23;2.40;;;;;;;;;;5051684;28;20204;-44
2022/09/22 01:14:58;;;;;;;3.43;1.90;;;;;;;;;;5051627;28;20235;-45
2022/09/22 01:17:29;;;;;;;2.20;2.00;;;;;;;;;;5051649;28;20204;-44
2022/09/22 01:20:10;;;;;;;4.23;2.20;;;;;;;;;;5051524;28;20227;-44
2022/09/22 01:22:45;;;;;;;3.33;2.17;;;;;;;;;;5051164;28;20208;-44
2022/09/22 01:25:23;;;;;;;3.07;2.20;;;;;;;;;;5051245;28;20200;-44
2022/09/22 01:27:57;;;;;;;2.30;2.10;;;;;;;;;;5051573;28;20192;-44
2022/09/22 01:30:28;;;;;;;3.03;2.43;;;;;;;;;;5051250;28;20240;-46
2022/09/22 01:33:13;;;;;;;2.57;2.10;;;;;;;;;;5051491;28;20214;-45
2022/09/22 01:35:44;;;;;;;3.23;2.50;;;;;;;;;;5050848;28;20231;-45
2022/09/22 01:38:11;;;;;;;3.97;2.40;;;;;;;;;;5051235;28;20208;-45
2022/09/22 01:40:41;;;;;;;2.50;2.30;;;;;;;;;;5051199;28;20198;-45
2022/09/22 01:43:11;;;;;;;3.43;2.57;;;;;;;;;;5051357;28;20442;-45
2022/09/22 01:45:40;;;;;;;4.37;3.07;;;;;;;;;;5051376;28;20435;-45
2022/09/22 01:48:09;;;;;;;3.67;3.13;;;;;;;;;;5051081;28;20215;-45
2022/09/22 01:50:37;;;;;;;5.67;3.23;;;;;;;;;;5051137;28;20454;-45
2022/09/22 01:53:06;;;;;;;4.87;2.80;;;;;;;;;;5050723;28;20251;-45
2022/09/22 01:55:34;;;;;;;3.20;2.70;;;;;;;;;;5050725;28;20653;-45
2022/09/22 01:58:02;;;;;;;3.30;2.80;;;;;;;;;;5051141;28;20438;-45
2022/09/22 02:00:29;;;;;;;2.83;2.53;;;;;;;;;;5050965;28;20232;-45
2022/09/22 02:02:59;;;;;;;2.40;2.20;;;;;;;;;;5051254;28;20430;-45
2022/09/22 02:05:27;;;;;;;4.33;2.67;;;;;;;;;;5051044;28;20200;-45
2022/09/22 02:07:54;;;;;;;2.40;2.20;;;;;;;;;;5051132;28;20224;-45
2022/09/22 02:10:22;;;;;;;2.80;2.10;;;;;;;;;;5050936;28;20199;-45
2022/09/22 02:12:48;;;;;;;2.57;2.37;;;;;;;;;;5049358;28;20489;-45
2022/09/22 02:18:18;;;;;;;2.33;2.13;;;;;;;;;;5016512;28;20690;-45
2022/09/22 02:20:44;;;;;;;3.80;2.40;;;;;;;;;;5049061;28;20999;-45
2022/09/22 02:23:10;;;;;;;2.77;2.13;;;;;;;;;;5050622;28;20517;-45
2022/09/22 02:25:36;;;;;;;4.00;2.37;;;;;;;;;;5048978;28;21017;-45
2022/09/22 02:28:02;;;;;;;2.50;2.20;;;;;;;;;;5049081;28;20617;-45
2022/09/22 02:30:28;;;;;;;3.47;2.57;;;;;;;;;;5050358;28;20482;-44
2022/09/22 02:32:55;;;;;;;2.40;2.20;;;;;;;;;;5050797;28;20200;-44
2022/09/22 02:35:25;;;;;;;2.23;2.03;;;;;;;;;;5048662;28;20853;-44
2022/09/22 02:37:54;;;;;;;2.30;2.10;;;;;;;;;;5050571;28;20204;-45
2022/09/22 02:40:22;;;;;;;3.60;2.40;;;;;;;;;;5047955;28;20445;-44
2022/09/22 02:42:51;;;;;;;2.83;2.17;;;;;;;;;;5048823;28;20447;-45
2022/09/22 02:45:19;;;;;;;2.63;2.30;;;;;;;;;;5049751;28;20435;-44
2022/09/22 02:47:47;;;;;;;2.90;2.70;;;;;;;;;;5050689;28;20600;-44
2022/09/22 02:50:15;;;;;;;3.80;2.20;;;;;;;;;;5050615;28;20925;-44
2022/09/22 02:52:42;;;;;;;4.43;2.50;;;;;;;;;;5050709;28;20201;-44
2022/09/22 02:55:09;;;;;;;3.13;2.57;;;;;;;;;;5050402;28;20227;-44
2022/09/22 02:57:35;;;;;;;2.87;2.37;;;;;;;;;;5050628;28;20435;-45
2022/09/22 03:00:01;;;;;;;2.23;2.07;;;;;;;;;;5050638;28;20220;-44
2022/09/22 03:02:27;;;;;;;2.43;2.23;;;;;;;;;;5050613;28;20963;-44
2022/09/22 03:04:53;;;;;;;2.40;2.20;;;;;;;;;;5050707;28;20202;-45
2022/09/22 03:07:19;;;;;;;3.57;2.40;;;;;;;;;;5054049;28;20227;-45
2022/09/22 03:09:46;;;;;;;2.63;1.90;;;;;;;;;;5054212;28;20204;-44
2022/09/22 03:12:12;;;;;;;3.20;2.40;;;;;;;;;;5054014;28;20713;-44
2022/09/22 03:14:38;;;;;;;2.33;2.13;;;;;;;;;;5053839;28;20228;-44
2022/09/22 03:17:04;;;;;;;3.47;2.67;;;;;;;;;;5054032;28;20199;-44
2022/09/22 03:19:30;;;;;;;2.73;2.40;;;;;;;;;;5052890;28;20700;-44
2022/09/22 03:21:56;;;;;;;2.40;2.20;;;;;;;;;;5054016;28;20438;-45
2022/09/22 03:24:22;;;;;;;3.07;2.37;;;;;;;;;;5053746;28;20208;-44
2022/09/22 03:26:50;;;;;;;2.30;2.10;;;;;;;;;;5053867;28;20203;-45
2022/09/22 03:29:15;;;;;;;2.77;2.20;;;;;;;;;;5053783;28;20442;-44
2022/09/22 03:31:41;;;;;;;3.60;2.30;;;;;;;;;;5053489;28;20244;-44
2022/09/22 03:34:07;;;;;;;3.27;2.83;;;;;;;;;;5053749;28;20286;-44
2022/09/22 03:36:34;;;;;;;3.43;2.50;;;;;;;;;;5053513;28;20736;-44
2022/09/22 03:39:00;;;;;;;3.03;2.43;;;;;;;;;;5053679;28;20200;-44
2022/09/22 03:41:26;;;;;;;4.93;2.37;;;;;;;;;;5053365;28;20541;-44
2022/09/22 03:43:53;;;;;;;2.60;2.40;;;;;;;;;;5053447;28;20208;-44
2022/09/22 03:46:19;;;;;;;3.00;2.70;;;;;;;;;;5053245;28;20197;-44
2022/09/22 03:48:46;;;;;;;3.10;2.50;;;;;;;;;;5053361;28;20729;-44
2022/09/22 03:51:12;;;;;;;2.70;2.47;;;;;;;;;;5053326;28;20435;-44
2022/09/22 03:53:38;;;;;;;5.03;2.60;;;;;;;;;;5053386;28;20207;-44
2022/09/22 03:56:04;;;;;;;2.30;2.10;;;;;;;;;;5053289;28;20474;-44
2022/09/22 03:58:30;;;;;;;2.70;2.40;;;;;;;;;;5052566;28;20607;-44
2022/09/22 04:00:57;;;;;;;2.33;2.13;;;;;;;;;;5050832;28;20249;-44
2022/09/22 04:03:23;;;;;;;2.77;2.40;;;;;;;;;;5052090;28;20655;-44
2022/09/22 04:05:50;;;;;;;2.83;2.47;;;;;;;;;;5050940;28;20232;-44
2022/09/22 04:08:16;;;;;;;5.97;2.43;;;;;;;;;;5050927;28;20537;-44
2022/09/22 04:10:43;;;;;;;2.27;2.07;;;;;;;;;;5050976;28;20488;-44
2022/09/22 04:13:09;;;;;;;3.43;2.23;;;;;;;;;;5052613;28;20430;-44
2022/09/22 04:15:35;;;;;;;3.17;2.37;;;;;;;;;;5052554;28;20331;-45
2022/09/22 04:18:03;;;;;;;2.80;2.33;;;;;;;;;;5051223;28;20247;-44
2022/09/22 04:20:29;;;;;;;2.40;2.20;;;;;;;;;;5049831;28;20311;-44
2022/09/22 04:22:55;;;;;;;2.40;2.20;;;;;;;;;;5052525;28;20434;-44
2022/09/22 04:25:21;;;;;;;5.20;2.40;;;;;;;;;;5052484;28;20961;-44
2022/09/22 04:27:47;;;;;;;3.90;2.43;;;;;;;;;;5052875;28;20434;-44
2022/09/22 04:30:13;;;;;;;3.60;2.53;;;;;;;;;;5052362;28;20239;-45
2022/09/22 04:32:39;;;;;;;2.80;2.10;;;;;;;;;;5052771;28;20211;-45
2022/09/22 04:35:08;;;;;;;2.80;2.50;;;;;;;;;;5051405;28;20221;-45
2022/09/22 04:37:34;;;;;;;2.60;2.40;;;;;;;;;;5052508;28;20207;-45
2022/09/22 04:40:00;;;;;;;2.50;2.30;;;;;;;;;;5052134;28;20446;-45
2022/09/22 04:42:26;;;;;;;2.80;2.20;;;;;;;;;;5052367;28;20447;-45
2022/09/22 04:44:55;;;;;;;3.57;2.37;;;;;;;;;;5052281;28;20439;-45
2022/09/22 04:47:21;;;;;;;2.60;2.40;;;;;;;;;;5052211;28;20227;-45
2022/09/22 04:49:47;;;;;;;4.90;3.53;;;;;;;;;;5052410;28;20466;-45
2022/09/22 04:52:15;;;;;;;6.17;3.10;;;;;;;;;;5052143;28;20196;-45
2022/09/22 04:54:41;;;;;;;4.37;3.10;;;;;;;;;;5050181;28;20567;-46
2022/09/22 04:57:07;;;;;;;2.80;2.47;;;;;;;;;;5050937;28;20434;-45
2022/09/22 04:59:34;;;;;;;3.13;2.87;;;;;;;;;;5051263;28;20447;-45
2022/09/22 05:02:00;;;;;;;2.97;2.50;;;;;;;;;;5051548;28;20204;-45
2022/09/22 05:04:26;;;;;;;2.43;2.23;;;;;;;;;;5049678;28;20438;-45
2022/09/22 05:06:52;;;;;;;3.13;2.63;;;;;;;;;;5051594;28;20196;-45
2022/09/22 05:09:20;;;;;;;4.60;2.90;;;;;;;;;;5051554;28;20196;-46
2022/09/22 05:11:47;;;;;;;3.17;2.57;;;;;;;;;;5049861;28;20224;-45
2022/09/22 05:14:14;;;;;;;3.90;2.50;;;;;;;;;;5051309;28;20972;-44
2022/09/22 05:16:40;;;;;;;2.90;2.70;;;;;;;;;;5051177;28;20562;-44
2022/09/22 05:19:08;;;;;;;4.13;2.50;;;;;;;;;;5051139;28;20435;-44
2022/09/22 05:21:34;;;;;;;4.13;2.50;;;;;;;;;;5051320;28;20457;-44
2022/09/22 05:24:00;;;;;;;4.03;2.70;;;;;;;;;;5049244;28;20227;-44
2022/09/22 05:26:29;;;;;;;3.00;2.60;;;;;;;;;;5051068;28;20259;-44
2022/09/22 05:28:56;;;;;;;3.80;3.10;;;;;;;;;;5050732;28;20431;-44
2022/09/22 05:31:22;;;;;;;4.20;2.90;;;;;;;;;;5050451;28;20879;-44
2022/09/22 05:33:48;;;;;;;4.87;2.90;;;;;;;;;;5050999;28;20434;-44
2022/09/22 05:36:14;;;;;;;5.00;3.00;;;;;;;;;;5049204;28;20648;-44
2022/09/22 05:38:40;;;;;;;2.73;2.53;;;;;;;;;;5049569;28;20215;-44
2022/09/22 05:41:06;;;;;;;2.90;2.60;;;;;;;;;;5051360;28;20258;-44
2022/09/22 05:43:33;;;;;;;3.90;2.80;;;;;;;;;;5050870;28;20203;-44
2022/09/22 05:45:59;;;;;;;3.90;3.40;;;;;;;;;;5049317;28;20208;-44
2022/09/22 05:48:25;;;;;;;4.13;3.40;;;;;;;;;;5050975;28;20447;-44
2022/09/22 05:50:51;;;;;;;4.70;3.37;;;;;;;;;;5050750;28;21064;-44
2022/09/22 05:53:17;;;;;;;3.40;2.70;;;;;;;;;;5049064;28;20450;-44
2022/09/22 05:55:43;;;;;;;4.03;2.50;;;;;;;;;;5050792;28;20228;-45
2022/09/22 05:58:10;;;;;;;4.10;2.30;;;;;;;;;;5051090;28;20300;-44
2022/09/22 06:00:38;;;;;;;4.07;2.40;;;;;;;;;;5050215;28;20204;-45
2022/09/22 06:03:04;;;;;;;3.77;2.60;;;;;;;;;;5049092;28;20486;-44
2022/09/22 06:05:30;;;;;;;4.00;2.53;;;;;;;;;;5051026;28;20442;-44
2022/09/22 06:07:59;;;;;;;4.17;2.20;;;;;;;;;;5050872;28;20525;-44
2022/09/22 06:10:25;;;;;;;2.50;2.30;;;;;;;;;;5049081;28;20431;-45
2022/09/22 06:12:51;;;;;;;2.83;2.43;;;;;;;;;;5050955;28;20431;-44
2022/09/22 06:15:17;;;;;;;3.23;2.27;;;;;;;;;;5048740;28;21072;-44
2022/09/22 06:17:44;;;;;;;2.90;2.50;;;;;;;;;;5049152;28;20234;-44
2022/09/22 06:20:10;;;;;;;4.33;2.60;;;;;;;;;;5050945;28;20212;-45
2022/09/22 06:22:36;;;;;;;4.20;2.60;;;;;;;;;;5048405;28;20196;-44
2022/09/22 06:25:03;;;;;;;2.80;2.33;;;;;;;;;;5050399;28;20200;-44
2022/09/22 06:27:29;;;;;;;2.63;2.30;;;;;;;;;;5050803;28;20196;-44
2022/09/22 06:29:55;;;;;;;2.97;2.60;;;;;;;;;;5050256;28;20196;-44
2022/09/22 06:32:21;;;;;;;3.80;2.50;;;;;;;;;;5051078;28;20209;-44
2022/09/22 06:34:49;;;;;;;2.80;2.23;;;;;;;;;;5046623;28;20287;-45
2022/09/22 06:37:15;;;;;;;3.10;2.40;;;;;;;;;;5049917;28;20246;-44
2022/09/22 06:39:41;;;;;;;2.80;2.40;;;;;;;;;;5048703;28;20662;-43
2022/09/22 06:42:08;;;;;;;3.47;2.53;;;;;;;;;;5053295;28;20196;-44
2022/09/22 06:44:35;;;;;;;5.07;2.87;;;;;;;;;;5051927;28;20757;-44
2022/09/22 06:47:04;;;;;;;4.73;3.07;;;;;;;;;;5054172;28;20204;-45
2022/09/22 06:49:30;;;;;;;5.67;3.37;;;;;;;;;;5052399;28;20279;-44
2022/09/22 06:51:57;;;;;;;7.00;3.00;;;;;;;;;;5053938;28;20295;-44
2022/09/22 06:54:23;;;;;;;4.90;3.07;;;;;;;;;;5052581;28;20616;-45
2022/09/22 06:56:49;;;;;;;6.13;2.93;;;;;;;;;;5053789;28;20250;-44
2022/09/22 06:59:15;;;;;;;6.03;2.90;;;;;;;;;;5052802;28;20570;-44
2022/09/22 07:01:42;;;;;;;4.43;2.57;;;;;;;;;;5051425;28;20713;-46
2022/09/22 07:04:08;;;;;;;4.63;2.70;;;;;;;;;;5052623;28;20200;-44
2022/09/22 07:06:36;;;;;;;3.63;2.50;;;;;;;;;;5053830;28;20331;-46
2022/09/22 07:09:04;;;;;;;6.93;2.43;;;;;;;;;;5053514;28;20228;-44
2022/09/22 07:11:30;;;;;;;2.77;2.47;;;;;;;;;;5051431;28;20204;-44
2022/09/22 07:13:57;;;;;;;8.07;3.07;;;;;;;;;;5050487;28;20192;-45
2022/09/22 07:16:24;;;;;;;3.30;2.70;;;;;;;;;;5053027;28;20238;-45
2022/09/22 07:18:51;;;;;;;6.40;2.77;;;;;;;;;;5052520;28;20658;-45
2022/09/22 07:21:19;;;;;;;2.83;2.27;;;;;;;;;;5035972;28;20250;-45
2022/09/22 07:23:46;;;;;;;3.20;2.37;;;;;;;;;;5053755;28;20207;-45
2022/09/22 07:26:14;;;;;;;6.87;2.80;;;;;;;;;;5053855;28;20239;-45
2022/09/22 07:28:41;;;;;;;5.20;2.77;;;;;;;;;;5054262;28;20204;-45
2022/09/22 07:31:08;;;;;;;3.20;2.43;;;;;;;;;;5053015;28;20874;-45
2022/09/22 07:33:34;;;;;;;7.77;3.67;;;;;;;;;;5052804;28;20570;-44
2022/09/22 07:36:01;;;;;;;4.60;2.67;;;;;;;;;;5053656;28;20327;-45
2022/09/22 07:38:32;;;;;;;4.17;2.60;;;;;;;;;;5052035;28;20663;-44
2022/09/22 07:40:59;;;;;;;4.47;2.60;;;;;;;;;;5054151;28;20216;-45
2022/09/22 07:43:26;;;;;;;7.20;3.07;;;;;;;;;;5053446;28;20234;-44
2022/09/22 07:45:54;;;;;;;5.07;2.73;;;;;;;;;;5051448;28;20555;-45
2022/09/22 07:48:36;;;;;;;4.83;2.37;;;;;;;;;;5051716;28;20228;-45
2022/09/22 07:51:02;;;;;;;6.00;2.50;;;;;;;;;;5052133;28;20204;-44
2022/09/22 07:53:28;;;;;;;7.47;2.70;;;;;;;;;;5052603;28;20201;-44
2022/09/22 07:55:55;;;;;;;3.37;2.20;;;;;;;;;;5052804;28;20709;-45
2022/09/22 07:58:21;;;;;;;3.80;2.20;;;;;;;;;;5052444;28;20236;-45
2022/09/22 08:00:49;;;;;;;3.43;2.07;;;;;;;;;;5050395;28;20222;-45
2022/09/22 08:03:15;;;;;;;3.23;2.13;;;;;;;;;;5052252;28;20197;-45
2022/09/22 08:05:41;;;;;;;4.53;1.80;;;;;;;;;;5052495;28;20550;-45
2022/09/22 08:08:08;;;;;;;4.83;2.00;;;;;;;;;;5051020;28;20216;-45
2022/09/22 08:10:34;;;;;;;3.50;2.20;;;;;;;;;;5050645;28;20227;-45
2022/09/22 08:13:03;;;;;;;3.47;2.00;;;;;;;;;;5050942;28;20204;-45
2022/09/22 08:15:28;;;;;;;2.43;1.97;;;;;;;;;;5052037;28;20694;-45
2022/09/22 08:18:02;;;;;;;3.63;2.10;;;;;;;;;;5051061;28;20212;-46
2022/09/22 08:20:28;;;;;;;3.80;2.20;;;;;;;;;;5047935;28;20204;-46
2022/09/22 08:22:59;;;;;;;3.57;1.83;;;;;;;;;;5050559;28;20199;-45
2022/09/22 08:25:25;;;;;;;4.77;2.10;;;;;;;;;;5051821;28;20196;-45
2022/09/22 08:27:51;;;;;;;4.43;2.30;;;;;;;;;;5051073;28;20283;-45
2022/09/22 08:30:18;;;;;;;6.10;1.90;;;;;;;;;;5049535;28;20236;-46
2022/09/22 08:32:45;;;;;;;5.03;2.80;;;;;;;;;;5050881;28;20204;-46
2022/09/22 08:35:12;;;;;;;7.00;3.83;;;;;;;;;;5051941;28;20228;-46
2022/09/22 08:37:40;;;;;;;6.40;2.07;;;;;;;;;;5051415;28;20204;-46
2022/09/22 08:40:09;;;;;;;5.10;1.73;;;;;;;;;;5051773;28;20617;-46
2022/09/22 08:42:35;;;;;;;3.83;1.63;;;;;;;;;;5051647;28;20207;-46
2022/09/22 08:45:03;;;;;;;3.97;1.87;;;;;;;;;;5051955;28;20200;-46
2022/09/22 08:53:10;;;;;;;3.13;1.77;;;;;;;;;;5051958;28;20208;-46
2022/09/22 08:55:41;;;;;;;3.03;1.43;;;;;;;;;;5051813;28;20231;-48
2022/09/22 08:58:17;;;;;;;3.27;1.70;;;;;;;;;;5052073;28;20702;-46
2022/09/22 09:00:45;;;;;;;3.90;1.80;;;;;;;;;;5051919;28;20217;-46
2022/09/22 09:03:21;;;;;;;4.20;1.80;;;;;;;;;;5051095;28;20567;-46
2022/09/22 09:05:53;;;;;;;6.13;2.47;;;;;;;;;;5051701;28;20224;-46
2022/09/22 09:08:34;;;;;;;5.27;2.00;;;;;;;;;;5049417;28;20300;-46
2022/09/22 09:11:07;;;;;;;4.07;2.13;;;;;;;;;;5047782;28;20211;-46
2022/09/22 09:13:41;;;;;;;4.37;1.63;;;;;;;;;;5051177;28;20197;-47
2022/09/22 09:16:14;;;;;;;4.77;1.70;;;;;;;;;;5049513;28;20309;-47
2022/09/22 09:18:42;;;;;;;4.90;1.80;;;;;;;;;;5049091;28;20217;-45
2022/09/22 09:21:12;;;;;;;3.23;1.60;;;;;;;;;;5049034;28;20207;-45
2022/09/22 09:23:41;;;;;;;3.10;1.53;;;;;;;;;;5049077;28;20206;-47
2022/09/22 09:26:07;;;;;;;1.97;1.43;;;;;;;;;;5047177;28;20249;-44
2022/09/22 09:28:34;;;;;;;4.23;1.67;;;;;;;;;;5048767;28;20199;-45
2022/09/22 09:31:06;;;;;;;2.97;1.40;;;;;;;;;;5050579;28;20336;-45
2022/09/22 09:33:36;;;;;;;4.67;1.70;;;;;;;;;;5048664;28;20200;-45
2022/09/22 09:36:02;;;;;;;3.67;1.50;;;;;;;;;;5050605;28;20232;-45
2022/09/22 09:38:33;;;;;;;3.27;1.50;;;;;;;;;;5050089;28;20198;-45
2022/09/22 09:41:02;;;;;;;3.53;1.70;;;;;;;;;;5050922;28;20556;-45
2022/09/22 09:43:29;;;;;;;2.63;1.60;;;;;;;;;;5050577;28;20207;-45
2022/09/22 09:45:59;;;;;;;3.63;1.27;;;;;;;;;;5049089;28;20200;-45
2022/09/22 09:48:30;;;;;;;4.17;1.73;;;;;;;;;;5050260;28;20203;-45
2022/09/22 09:51:00;;;;;;;3.30;1.60;;;;;;;;;;5050536;28;20212;-45
2022/09/22 09:53:31;;;;;;;4.77;1.50;;;;;;;;;;5050097;28;20331;-45
2022/09/22 09:55:57;;;;;;;4.03;1.50;;;;;;;;;;5049725;28;20813;-45
2022/09/22 10:01:11;;;;;;;3.57;1.60;;;;;;;;;;5046263;28;20589;-44
2022/09/22 10:03:42;;;;;;;3.10;1.43;;;;;;;;;;5049362;28;20211;-44
2022/09/22 10:06:09;;;;;;;3.57;1.60;;;;;;;;;;5069212;28;20208;-44
2022/09/22 10:08:43;;;;;;;3.43;1.30;;;;;;;;;;5068414;28;20216;-45
2022/09/22 10:11:11;;;;;;;2.73;1.40;;;;;;;;;;5069846;28;20290;-45
2022/09/22 10:13:37;;;;;;;2.97;1.30;;;;;;;;;;5060538;28;20207;-46
2022/09/22 10:16:21;;;;;;;3.80;1.40;;;;;;;;;;5053573;28;20224;-44
2022/09/22 10:18:48;;;;;;;3.63;1.30;;;;;;;;;;5071449;28;20266;-45
2022/09/22 10:21:14;;;;;;;4.77;1.50;;;;;;;;;;5073684;28;20211;-45
2022/09/22 10:23:42;;;;;;;4.37;1.73;;;;;;;;;;5072921;28;20272;-46
2022/09/22 10:26:13;;;;;;;5.97;1.50;;;;;;;;;;5074491;28;20204;-46
2022/09/22 10:28:39;;;;;;;4.10;1.43;;;;;;;;;;5074501;28;20199;-46
2022/09/22 10:31:05;;;;;;;3.57;1.50;;;;;;;;;;5074528;28;20285;-45
2022/09/22 10:33:32;;;;;;;3.77;1.30;;;;;;;;;;5074166;28;20249;-44
2022/09/22 10:36:03;;;;;;;3.83;1.30;;;;;;;;;;5072506;28;20230;-45
2022/09/22 10:38:31;;;;;;;3.57;1.43;;;;;;;;;;5073364;28;20197;-45
2022/09/22 10:41:06;;;;;;;3.23;1.30;;;;;;;;;;5074282;28;20206;-44
2022/09/22 10:43:36;;;;;;;3.43;1.60;;;;;;;;;;5074009;28;20208;-45
2022/09/22 10:46:09;;;;;;;3.73;1.30;;;;;;;;;;5074169;28;20344;-44
2022/09/22 10:48:39;;;;;;;2.37;1.40;;;;;;;;;;5073477;28;20278;-45
2022/09/22 10:51:08;;;;;;;4.03;1.40;;;;;;;;;;5074455;28;20553;-45
2022/09/22 10:53:38;;;;;;;3.10;1.40;;;;;;;;;;5074253;28;20611;-46
2022/09/22 10:56:12;;;;;;;4.47;1.47;;;;;;;;;;5073723;28;20228;-46
2022/09/22 10:58:50;;;;;;;2.43;1.40;;;;;;;;;;5073196;28;20204;-46
2022/09/22 11:01:26;;;;;;;2.20;1.37;;;;;;;;;;5072235;28;20545;-47
2022/09/22 11:03:57;;;;;;;3.67;1.47;;;;;;;;;;5072613;28;20196;-46
2022/09/22 11:12:16;;;;;;;2.97;1.37;;;;;;;;;;5073790;28;20244;-46
2022/09/22 11:14:49;;;;;;;6.93;1.40;;;;;;;;;;5073893;28;20205;-46
2022/09/22 11:17:19;;;;;;;2.13;1.20;;;;;;;;;;5074245;28;20219;-46
2022/09/22 11:19:57;;;;;;;3.47;1.07;;;;;;;;;;5074170;28;20209;-46
2022/09/22 11:22:34;;;;;;;2.07;1.07;;;;;;;;;;5073844;28;20208;-46
2022/09/22 11:25:07;;;;;;;6.33;1.50;;;;;;;;;;5073439;28;20542;-46
2022/09/22 11:27:40;;;;;;;2.67;1.60;;;;;;;;;;5073189;28;20250;-46
2022/09/22 11:30:15;;;;;;;1.97;1.13;;;;;;;;;;5073461;28;20251;-46
2022/09/22 11:32:50;;;;;;;2.83;1.23;;;;;;;;;;5073453;28;20748;-46
2022/09/22 11:35:40;;;;;;;2.80;1.33;;;;;;;;;;5073918;28;20216;-46
2022/09/22 11:38:12;;;;;;;2.90;1.40;;;;;;;;;;5073299;28;20538;-46
2022/09/22 11:40:51;;;;;;;1.90;0.90;;;;;;;;;;5072907;28;20675;-46
2022/09/22 11:43:27;;;;;;;3.47;1.30;;;;;;;;;;5073080;28;20582;-46
2022/09/22 11:45:56;;;;;;;2.20;1.10;;;;;;;;;;5072698;28;20196;-46
2022/09/22 11:48:28;;;;;;;2.20;1.03;;;;;;;;;;5073573;28;20245;-46
2022/09/22 11:51:08;;;;;;;2.67;1.10;;;;;;;;;;5073666;28;20299;-46
2022/09/22 11:53:51;;;;;;;3.40;1.20;;;;;;;;;;5072640;28;20207;-46
2022/09/22 11:56:38;;;;;;;2.90;1.00;;;;;;;;;;5073471;28;20228;-46
2022/09/22 11:59:12;;;;;;;2.50;1.33;;;;;;;;;;5066631;28;20196;-46
2022/09/22 12:01:40;;;;;;;2.30;1.27;;;;;;;;;;5072724;28;20661;-46
2022/09/22 12:04:13;;;;;;;1.50;1.20;;;;;;;;;;5072863;28;20245;-47
2022/09/22 12:06:41;;;;;;;1.47;0.90;;;;;;;;;;5073347;28;20191;-46
2022/09/22 12:09:10;;;;;;;3.73;1.07;;;;;;;;;;5073032;28;20203;-46
2022/09/22 12:11:37;;;;;;;4.37;1.30;;;;;;;;;;5073237;28;20196;-46
2022/09/22 12:14:04;;;;;;;4.17;1.50;;;;;;;;;;5073034;28;20670;-46
2022/09/22 12:16:40;;;;;;;3.53;1.40;;;;;;;;;;5072951;28;20636;-46
2022/09/22 12:19:13;;;;;;;3.40;1.40;;;;;;;;;;5073243;28;20286;-46
2022/09/22 12:21:45;;;;;;;4.17;1.63;;;;;;;;;;5073219;28;20200;-47
2022/09/22 12:24:11;;;;;;;2.50;1.23;;;;;;;;;;5072856;28;20646;-47
2022/09/22 12:26:39;;;;;;;3.80;1.33;;;;;;;;;;5071292;28;20290;-46
2022/09/22 12:29:07;;;;;;;3.47;1.50;;;;;;;;;;5072560;28;20207;-47
2022/09/22 12:31:35;;;;;;;1.70;1.20;;;;;;;;;;5072603;28;20263;-46
2022/09/22 12:34:02;;;;;;;5.13;2.00;;;;;;;;;;5072754;28;20253;-46
2022/09/22 12:36:29;;;;;;;3.30;1.30;;;;;;;;;;5072474;28;20214;-46
2022/09/22 12:39:06;;;;;;;4.13;1.43;;;;;;;;;;5071152;28;20207;-46
2022/09/22 12:41:32;;;;;;;3.90;1.40;;;;;;;;;;5071876;28;20195;-46
2022/09/22 12:44:06;;;;;;;2.70;1.40;;;;;;;;;;5072468;28;20200;-47
2022/09/22 12:46:32;;;;;;;4.07;1.63;;;;;;;;;;5072332;28;20556;-46
2022/09/22 12:48:59;;;;;;;3.50;1.20;;;;;;;;;;5072151;28;20683;-47
2022/09/22 12:51:30;;;;;;;2.80;1.07;;;;;;;;;;5072153;28;20195;-46
2022/09/22 12:54:15;;;;;;;2.47;1.30;;;;;;;;;;5072335;28;20190;-46
2022/09/22 12:56:44;;;;;;;1.20;1.10;;;;;;;;;;5071945;28;20635;-46
2022/09/22 12:59:25;;;;;;;3.27;1.13;;;;;;;;;;5072044;28;20986;-47
2022/09/22 13:02:16;;;;;;;4.50;1.20;;;;;;;;;;5055343;28;20681;-46
2022/09/22 13:05:04;;;;;;;3.77;1.40;;;;;;;;;;5052072;28;20199;-46
2022/09/22 13:07:32;;;;;;;1.67;1.27;;;;;;;;;;5048812;28;20248;-47
2022/09/22 13:10:13;;;;;;;3.47;1.67;;;;;;;;;;5070015;28;20728;-47
2022/09/22 13:12:39;;;;;;;2.00;1.17;;;;;;;;;;5071147;28;20214;-47
2022/09/22 13:15:23;;;;;;;3.97;1.20;;;;;;;;;;5071772;28;20203;-46
2022/09/22 13:17:50;;;;;;;2.57;1.07;;;;;;;;;;5071835;28;20203;-46
2022/09/22 13:20:18;;;;;;;2.27;1.30;;;;;;;;;;5059585;28;20278;-46
2022/09/22 13:22:45;;;;;;;2.77;1.30;;;;;;;;;;5051543;28;20208;-46
2022/09/22 13:25:32;;;;;;;3.00;1.30;;;;;;;;;;5051750;28;20678;-47
2022/09/22 13:28:02;;;;;;;3.63;1.57;;;;;;;;;;5044707;28;20318;-47
2022/09/22 13:30:28;;;;;;;5.40;1.67;;;;;;;;;;5051250;28;20247;-46
2022/09/22 13:32:54;;;;;;;1.60;1.00;;;;;;;;;;5049456;28;20223;-45
2022/09/22 13:35:24;;;;;;;2.57;1.13;;;;;;;;;;5050611;28;20204;-47
2022/09/22 13:37:52;;;;;;;3.17;1.37;;;;;;;;;;5050516;28;20309;-45
2022/09/22 13:40:19;;;;;;;2.90;1.47;;;;;;;;;;5051432;28;20196;-47
2022/09/22 13:42:45;;;;;;;2.27;1.10;;;;;;;;;;5050904;28;20230;-47
2022/09/22 13:45:17;;;;;;;3.17;1.37;;;;;;;;;;5050843;28;20223;-44
2022/09/22 13:47:44;;;;;;;2.73;1.30;;;;;;;;;;5051012;28;20552;-46
2022/09/22 13:50:12;;;;;;;2.53;1.13;;;;;;;;;;5050018;28;20645;-46
2022/09/22 13:52:40;;;;;;;1.10;0.90;;;;;;;;;;5050869;28;20192;-46
2022/09/22 13:55:08;;;;;;;2.00;1.20;;;;;;;;;;5051208;28;20680;-45
2022/09/22 13:57:36;;;;;;;2.30;1.20;;;;;;;;;;5050911;28;20232;-45
2022/09/22 14:00:04;;;;;;;2.97;1.30;;;;;;;;;;5051380;28;20606;-45
2022/09/22 14:02:30;;;;;;;4.73;1.50;;;;;;;;;;5051184;28;20617;-46
2022/09/22 14:05:00;;;;;;;3.17;1.20;;;;;;;;;;5049751;28;20195;-45
2022/09/22 14:07:27;;;;;;;2.67;1.27;;;;;;;;;;5050730;28;20646;-46
2022/09/22 14:09:56;;;;;;;3.20;1.30;;;;;;;;;;5051051;28;20262;-45
2022/09/22 14:12:22;;;;;;;6.27;5.20;;;;;;;;;;5051168;28;20215;-45
2022/09/22 14:14:47;;;;;;;4.43;1.40;;;;;;;;;;5050316;28;20227;-45
2022/09/22 14:17:17;;;;;;;3.13;1.37;;;;;;;;;;5050694;28;20644;-46
2022/09/22 14:19:45;;;;;;;3.23;1.40;;;;;;;;;;5050947;28;20243;-46
2022/09/22 14:22:15;;;;;;;1.63;1.00;;;;;;;;;;5050644;28;20204;-46
2022/09/22 14:24:43;;;;;;;3.67;1.33;;;;;;;;;;5051015;28;20245;-45
2022/09/22 14:27:17;;;;;;;2.83;1.30;;;;;;;;;;5050529;28;20212;-46
2022/09/22 14:29:46;;;;;;;2.63;1.00;;;;;;;;;;5050518;28;20356;-47
2022/09/22 14:32:16;;;;;;;3.50;1.27;;;;;;;;;;5050530;28;20678;-46
2022/09/22 14:34:45;;;;;;;3.37;1.20;;;;;;;;;;5050867;28;20254;-46
2022/09/22 14:37:15;;;;;;;3.53;1.70;;;;;;;;;;5050793;28;20589;-46
2022/09/22 14:39:43;;;;;;;2.07;1.37;;;;;;;;;;5050706;28;20255;-46
2022/09/22 14:42:14;;;;;;;2.93;1.53;;;;;;;;;;5050766;28;20192;-46
2022/09/22 14:44:43;;;;;;;5.73;1.40;;;;;;;;;;5050114;28;20207;-45
2022/09/22 14:47:18;;;;;;;1.40;0.93;;;;;;;;;;5050594;28;20615;-46
2022/09/22 14:49:44;;;;;;;2.50;1.50;;;;;;;;;;5050782;28;20212;-47
2022/09/22 14:52:14;;;;;;;3.27;1.43;;;;;;;;;;5047292;28;20207;-48
2022/09/22 14:54:42;;;;;;;2.37;1.40;;;;;;;;;;5051218;28;20211;-46
2022/09/22 14:57:08;;;;;;;2.33;1.17;;;;;;;;;;5050861;28;20255;-46
2022/09/22 15:02:32;;;;;;;1.60;1.00;;;;;;;;;;5051053;28;20197;-48
2022/09/22 15:05:02;;;;;;;3.33;1.00;;;;;;;;;;5054162;28;20566;-46
2022/09/22 15:07:29;;;;;;;4.50;1.33;;;;;;;;;;5054201;28;20698;-46
2022/09/22 15:09:57;;;;;;;2.47;1.10;;;;;;;;;;5054035;28;20283;-45
2022/09/22 15:12:35;;;;;;;1.57;1.20;;;;;;;;;;5054083;28;20277;-46